Profiler II — CZ2496 — position and weather

sailwx.info

Track history (hours):
 
Tides and Currents Weather Stations Pressure Air Temp Water Temp Dewpoint Dewpoint Depression Visibility Wind Speed Wind Dir Waves Ship Positions

Profiler II

Last reported at 2015-Sep-02 22:11 UTC. Time now 2015-Sep-03 08:57 UTC.
Position N 49°08' W 122°18'.

Type: Other ship. MMSI: 316002054.

Date/timePositionNaut miles runAvg speedWind from/ knotsBaromVisibWave heightAir tempDewpointWater temp
2015-Sep-02 22:11N 49°08' W 122°18'2 2.0
2015-Sep-02 21:27N 49°08' W 122°20'6 1.2
2015-Sep-02 16:25N 49°10' W 122°28'0 0.0
2015-Sep-01 20:12N 49°10' W 122°28'0 0.2
2015-Sep-01 19:33N 49°10' W 122°29'1 0.7
2015-Sep-01 18:33N 49°10' W 122°30'1 0.7
2015-Sep-01 17:23N 49°10' W 122°28'1 1.5
2015-Sep-01 16:33N 49°10' W 122°30'3 2.8
2015-Sep-01 15:33N 49°11' W 122°34'1 0.0
2015-Aug-31 21:25N 49°11' W 122°34'0 0.3
2015-Aug-31 20:33N 49°11' W 122°34'0 0.4
2015-Aug-31 19:33N 49°11' W 122°35'1 0.6
2015-Aug-31 18:33N 49°11' W 122°34'2 1.6
2015-Aug-31 17:33N 49°12' W 122°36'1 0.5
2015-Aug-31 16:33N 49°11' W 122°35'0 0.4
2015-Aug-31 15:33N 49°11' W 122°35'  
2015-Aug-28 20:28N 49°11' W 122°34'1 1.4
2015-Aug-28 19:32N 49°12' W 122°35'0 0.5
2015-Aug-28 18:31N 49°12' W 122°36'0 0.1
2015-Aug-28 17:33N 49°12' W 122°36'2 1.5
2015-Aug-28 16:32N 49°12' W 122°38'1 1.1
2015-Aug-28 15:33N 49°13' W 122°37'3 0.2
2015-Aug-27 22:07N 49°11' W 122°34'3 4.5
2015-Aug-27 21:32N 49°13' W 122°36'1 0.9
2015-Aug-27 20:26N 49°13' W 122°38'1 1.4
2015-Aug-27 19:33N 49°12' W 122°40'0 0.2
2015-Aug-27 18:33N 49°12' W 122°39'0 0.2
2015-Aug-27 17:33N 49°12' W 122°40'0 0.2
2015-Aug-27 16:33N 49°12' W 122°39'4 3.5
2015-Aug-27 15:24N 49°11' W 122°33'0 0.0
2015-Aug-27 00:28N 49°11' W 122°33'0 0.0
2015-Aug-26 20:30N 49°11' W 122°33'5 5.0
2015-Aug-26 19:33N 49°12' W 122°41'0 0.2
2015-Aug-26 18:33N 49°12' W 122°41'0 0.0
2015-Aug-26 17:33N 49°12' W 122°41'0 0.2
2015-Aug-26 16:33N 49°12' W 122°41'9 9.2
2015-Aug-26 15:34N 49°12' W 122°55'1 0.0
2015-Aug-25 21:21N 49°12' W 122°55'0 0.0
2015-Aug-25 17:31N 49°12' W 122°55'0 0.0
2015-Aug-24 22:06N 49°12' W 122°55'610.7
2015-Aug-24 21:34N 49°09' W 123°03'6 4.4
2015-Aug-24 20:13N 49°07' W 123°11'0 0.0
2015-Aug-24 19:34N 49°07' W 123°11'5 5.4
2015-Aug-24 18:34N 49°08' W 123°03'0 0.1
2015-Aug-24 17:33N 49°08' W 123°03'0 0.3
2015-Aug-24 16:33N 49°08' W 123°04'7 6.5
2015-Aug-24 15:33N 49°12' W 122°55'  
Track history (hours):
 
Tides and Currents Weather Stations Pressure Air Temp Water Temp Dewpoint Dewpoint Depression Visibility Wind Speed Wind Dir Waves Ship Positions

Profiler II

Last reported at 2015-Sep-02 22:11 UTC. Time now 2015-Sep-03 08:57 UTC.
Position N 49°08' W 122°18'.

Type: Other ship. MMSI: 316002054.

Date/timePositionNaut miles runAvg speedWind from/ knotsBaromVisibWave heightAir tempDewpointWater temp
2015-Sep-02 22:11N 49°08' W 122°18'2 2.0
2015-Sep-02 21:27N 49°08' W 122°20'6 1.2
2015-Sep-02 16:25N 49°10' W 122°28'0 0.0
2015-Sep-01 20:12N 49°10' W 122°28'0 0.2
2015-Sep-01 19:33N 49°10' W 122°29'1 0.7
2015-Sep-01 18:33N 49°10' W 122°30'1 0.7
2015-Sep-01 17:23N 49°10' W 122°28'1 1.5
2015-Sep-01 16:33N 49°10' W 122°30'3 2.8
2015-Sep-01 15:33N 49°11' W 122°34'1 0.0
2015-Aug-31 21:25N 49°11' W 122°34'0 0.3
2015-Aug-31 20:33N 49°11' W 122°34'0 0.4
2015-Aug-31 19:33N 49°11' W 122°35'1 0.6
2015-Aug-31 18:33N 49°11' W 122°34'2 1.6
2015-Aug-31 17:33N 49°12' W 122°36'1 0.5
2015-Aug-31 16:33N 49°11' W 122°35'0 0.4
2015-Aug-31 15:33N 49°11' W 122°35'  
2015-Aug-28 20:28N 49°11' W 122°34'1 1.4
2015-Aug-28 19:32N 49°12' W 122°35'0 0.5
2015-Aug-28 18:31N 49°12' W 122°36'0 0.1
2015-Aug-28 17:33N 49°12' W 122°36'2 1.5
2015-Aug-28 16:32N 49°12' W 122°38'1 1.1
2015-Aug-28 15:33N 49°13' W 122°37'3 0.2
2015-Aug-27 22:07N 49°11' W 122°34'3 4.5
2015-Aug-27 21:32N 49°13' W 122°36'1 0.9
2015-Aug-27 20:26N 49°13' W 122°38'1 1.4
2015-Aug-27 19:33N 49°12' W 122°40'0 0.2
2015-Aug-27 18:33N 49°12' W 122°39'0 0.2
2015-Aug-27 17:33N 49°12' W 122°40'0 0.2
2015-Aug-27 16:33N 49°12' W 122°39'4 3.5
2015-Aug-27 15:24N 49°11' W 122°33'0 0.0
2015-Aug-27 00:28N 49°11' W 122°33'0 0.0
2015-Aug-26 20:30N 49°11' W 122°33'5 5.0
2015-Aug-26 19:33N 49°12' W 122°41'0 0.2
2015-Aug-26 18:33N 49°12' W 122°41'0 0.0
2015-Aug-26 17:33N 49°12' W 122°41'0 0.2
2015-Aug-26 16:33N 49°12' W 122°41'9 9.2
2015-Aug-26 15:34N 49°12' W 122°55'1 0.0
2015-Aug-25 21:21N 49°12' W 122°55'0 0.0
2015-Aug-25 17:31N 49°12' W 122°55'0 0.0
2015-Aug-24 22:06N 49°12' W 122°55'610.7
2015-Aug-24 21:34N 49°09' W 123°03'6 4.4
2015-Aug-24 20:13N 49°07' W 123°11'0 0.0
2015-Aug-24 19:34N 49°07' W 123°11'5 5.4
2015-Aug-24 18:34N 49°08' W 123°03'0 0.1
2015-Aug-24 17:33N 49°08' W 123°03'0 0.3
2015-Aug-24 16:33N 49°08' W 123°04'7 6.5
2015-Aug-24 15:33N 49°12' W 122°55'  

Dump ship's entire track history